Time;durP1;ratioP1;P1;durP2;ratioP2;P2;SDS_P1;SDS_P2;PMS_P1;PMS_P2;Temp;Humidity;BMP_temperature;BMP_pressure;BME280_temperature;BME280_humidity;BME280_pressure;Samples;Min_cycle;Max_cycle;Signal;HPM_P1;HPM_P2
2023/08/31 00:02:11;;;;;;;11.90;11.02;;;;;;;;;;5003186;28;20053;-74
2023/08/31 00:04:37;;;;;;;12.65;11.57;;;;;;;;;;4986405;28;20080;-75
2023/08/31 00:07:03;;;;;;;12.20;11.15;;;;;;;;;;4987502;28;20096;-74
2023/08/31 00:09:32;;;;;;;12.07;11.27;;;;;;;;;;4969726;28;20053;-73
2023/08/31 00:11:58;;;;;;;12.00;11.23;;;;;;;;;;5000199;28;20042;-72
2023/08/31 00:14:25;;;;;;;12.55;11.70;;;;;;;;;;4988438;28;20064;-72
2023/08/31 00:16:51;;;;;;;12.52;11.50;;;;;;;;;;4968548;28;20034;-71
2023/08/31 00:19:17;;;;;;;11.75;11.00;;;;;;;;;;4977982;28;20081;-72
2023/08/31 00:21:43;;;;;;;12.38;11.38;;;;;;;;;;4987995;28;20034;-71
2023/08/31 00:24:10;;;;;;;12.35;11.55;;;;;;;;;;4983915;28;20658;-74
2023/08/31 00:26:42;;;;;;;11.85;11.15;;;;;;;;;;4998968;28;20018;-74
2023/08/31 00:29:11;;;;;;;12.48;11.68;;;;;;;;;;4977411;28;20122;-73
2023/08/31 00:31:38;;;;;;;11.93;11.23;;;;;;;;;;5005184;28;20034;-74
2023/08/31 00:34:06;;;;;;;12.52;11.40;;;;;;;;;;5001521;28;20106;-74
2023/08/31 00:36:33;;;;;;;11.57;10.88;;;;;;;;;;4984420;28;20557;-73
2023/08/31 00:39:05;;;;;;;12.10;11.30;;;;;;;;;;4963433;28;20113;-74
2023/08/31 00:41:31;;;;;;;11.57;10.68;;;;;;;;;;4986276;28;20038;-74
2023/08/31 00:43:57;;;;;;;12.63;11.52;;;;;;;;;;4998479;28;20041;-73
2023/08/31 00:46:23;;;;;;;11.90;11.10;;;;;;;;;;5001930;28;20096;-74
2023/08/31 00:48:48;;;;;;;11.93;10.80;;;;;;;;;;4986422;28;20027;-74
2023/08/31 00:51:15;;;;;;;11.75;10.93;;;;;;;;;;4984404;28;20034;-73
2023/08/31 00:53:41;;;;;;;11.90;11.13;;;;;;;;;;4985013;28;20123;-74
2023/08/31 00:56:08;;;;;;;12.50;11.60;;;;;;;;;;4987670;28;20101;-73
2023/08/31 00:58:35;;;;;;;12.30;11.40;;;;;;;;;;4973242;28;20925;-71
2023/08/31 01:01:06;;;;;;;12.05;11.15;;;;;;;;;;4986432;28;20513;-71
2023/08/31 01:03:49;;;;;;;12.23;11.45;;;;;;;;;;4987143;28;20042;-71
2023/08/31 01:06:31;;;;;;;12.57;11.68;;;;;;;;;;4983497;28;20054;-73
2023/08/31 01:09:39;;;;;;;12.70;11.60;;;;;;;;;;4955167;28;20069;-71
2023/08/31 01:12:15;;;;;;;13.40;12.50;;;;;;;;;;4970439;28;20375;-71
2023/08/31 01:14:47;;;;;;;12.60;11.48;;;;;;;;;;5008167;28;20045;-73
2023/08/31 01:17:17;;;;;;;12.93;11.93;;;;;;;;;;5005475;28;20041;-74
2023/08/31 01:19:53;;;;;;;;;;;;;;;;;;4982698;28;20038;-74
2023/08/31 01:22:33;;;;;;;12.00;11.20;;;;;;;;;;4978996;28;19913;-74
2023/08/31 01:25:04;;;;;;;12.85;11.85;;;;;;;;;;4990186;28;20027;-73
2023/08/31 01:27:33;;;;;;;13.23;12.30;;;;;;;;;;5004537;28;20038;-74
2023/08/31 01:29:59;;;;;;;13.32;12.32;;;;;;;;;;4974255;28;20128;-74
2023/08/31 01:32:25;;;;;;;13.23;12.30;;;;;;;;;;4991924;28;20046;-74
2023/08/31 01:34:52;;;;;;;13.05;12.05;;;;;;;;;;4994542;28;20046;-74
2023/08/31 01:37:29;;;;;;;13.98;12.95;;;;;;;;;;4974561;28;20030;-73
2023/08/31 01:40:05;;;;;;;16.10;12.10;;;;;;;;;;4986716;28;20529;-74
2023/08/31 01:42:31;;;;;;;14.00;12.80;;;;;;;;;;4990316;28;20042;-74
2023/08/31 01:45:00;;;;;;;13.18;12.18;;;;;;;;;;4988943;28;20081;-74
2023/08/31 01:47:26;;;;;;;14.88;13.38;;;;;;;;;;4992085;28;20061;-74
2023/08/31 01:49:53;;;;;;;13.60;12.45;;;;;;;;;;4973456;28;20065;-74
2023/08/31 01:52:18;;;;;;;13.55;12.45;;;;;;;;;;4990358;28;20517;-74
2023/08/31 01:54:44;;;;;;;13.70;12.57;;;;;;;;;;5004429;28;20097;-74
2023/08/31 01:57:10;;;;;;;13.63;12.50;;;;;;;;;;4972403;28;20485;-74
2023/08/31 01:59:56;;;;;;;14.13;12.88;;;;;;;;;;5005647;28;20064;-74
2023/08/31 02:02:22;;;;;;;14.52;13.20;;;;;;;;;;4992521;28;20383;-73
2023/08/31 02:04:48;;;;;;;13.40;12.30;;;;;;;;;;4962167;28;20058;-73
2023/08/31 02:07:14;;;;;;;14.07;12.80;;;;;;;;;;4993714;28;20124;-73
2023/08/31 02:09:39;;;;;;;13.30;12.30;;;;;;;;;;4990329;28;20045;-73
2023/08/31 02:12:05;;;;;;;13.60;12.52;;;;;;;;;;4981780;28;20045;-73
2023/08/31 02:14:31;;;;;;;13.52;12.55;;;;;;;;;;5009776;28;20034;-73
2023/08/31 02:16:57;;;;;;;12.90;11.95;;;;;;;;;;4991446;28;20130;-73
2023/08/31 02:19:22;;;;;;;13.32;12.00;;;;;;;;;;4984848;28;20049;-73
2023/08/31 02:21:48;;;;;;;14.35;12.07;;;;;;;;;;5014968;28;20122;-73
2023/08/31 02:24:14;;;;;;;12.70;11.80;;;;;;;;;;4994255;28;20041;-73
2023/08/31 02:26:40;;;;;;;12.52;11.70;;;;;;;;;;5009201;28;20056;-74
2023/08/31 02:29:06;;;;;;;13.10;12.10;;;;;;;;;;5014099;28;20046;-73
2023/08/31 02:31:32;;;;;;;13.80;12.70;;;;;;;;;;4989319;28;20050;-74
2023/08/31 02:33:58;;;;;;;13.45;12.40;;;;;;;;;;4978761;28;20038;-74
2023/08/31 02:36:25;;;;;;;13.38;12.23;;;;;;;;;;5001093;28;20653;-74
2023/08/31 02:38:52;;;;;;;12.93;11.82;;;;;;;;;;4985693;28;20042;-74
2023/08/31 02:41:18;;;;;;;13.32;12.27;;;;;;;;;;4988413;28;20042;-74
2023/08/31 02:43:44;;;;;;;13.52;12.32;;;;;;;;;;4986898;28;20046;-73
2023/08/31 02:46:10;;;;;;;12.75;11.85;;;;;;;;;;4970538;28;20056;-74
2023/08/31 02:48:36;;;;;;;13.38;12.38;;;;;;;;;;4992952;28;20097;-73
2023/08/31 02:51:02;;;;;;;12.82;11.93;;;;;;;;;;5008511;28;20051;-73
2023/08/31 02:53:31;;;;;;;12.70;11.80;;;;;;;;;;5006601;28;20917;-74
2023/08/31 02:55:57;;;;;;;13.25;12.05;;;;;;;;;;4977727;28;20096;-74
2023/08/31 02:58:23;;;;;;;13.20;12.20;;;;;;;;;;4959588;28;20695;-73
2023/08/31 03:00:49;;;;;;;12.93;12.07;;;;;;;;;;4987223;28;20651;-74
2023/08/31 03:03:16;;;;;;;13.43;12.35;;;;;;;;;;4971600;28;20510;-74
2023/08/31 03:05:43;;;;;;;13.98;12.80;;;;;;;;;;4988955;28;20402;-74
2023/08/31 03:08:10;;;;;;;13.25;12.27;;;;;;;;;;4984594;28;20031;-73
2023/08/31 03:10:36;;;;;;;13.20;12.18;;;;;;;;;;5001351;28;20041;-74
2023/08/31 03:13:03;;;;;;;13.27;12.05;;;;;;;;;;4982593;28;20033;-74
2023/08/31 03:15:28;;;;;;;13.13;12.23;;;;;;;;;;4985360;28;20057;-73
2023/08/31 03:17:54;;;;;;;13.68;12.68;;;;;;;;;;5002482;28;20042;-74
2023/08/31 03:20:20;;;;;;;13.23;12.20;;;;;;;;;;4994132;28;20042;-74
2023/08/31 03:22:46;;;;;;;13.90;12.70;;;;;;;;;;4984423;28;20035;-73
2023/08/31 03:25:12;;;;;;;14.30;13.27;;;;;;;;;;5002757;28;20034;-74
2023/08/31 03:27:37;;;;;;;13.98;12.93;;;;;;;;;;4991531;28;20041;-73
2023/08/31 03:30:04;;;;;;;14.15;12.85;;;;;;;;;;4988327;28;20049;-73
2023/08/31 03:32:29;;;;;;;14.75;13.48;;;;;;;;;;4997180;28;20038;-73
2023/08/31 03:34:55;;;;;;;15.30;13.80;;;;;;;;;;5004848;28;20041;-73
2023/08/31 03:37:21;;;;;;;15.13;13.55;;;;;;;;;;4988104;28;20390;-74
2023/08/31 03:39:48;;;;;;;14.25;12.95;;;;;;;;;;4988582;28;20053;-73
2023/08/31 03:42:14;;;;;;;13.60;12.60;;;;;;;;;;4988976;28;20045;-73
2023/08/31 03:44:39;;;;;;;13.32;12.43;;;;;;;;;;4999909;28;20045;-72
2023/08/31 03:47:05;;;;;;;13.75;12.68;;;;;;;;;;4988339;28;20497;-72
2023/08/31 03:49:33;;;;;;;13.32;12.23;;;;;;;;;;4987721;28;20429;-73
2023/08/31 03:51:59;;;;;;;13.90;12.57;;;;;;;;;;4988477;28;20030;-72
2023/08/31 03:54:26;;;;;;;14.55;13.15;;;;;;;;;;4986839;28;20066;-72
2023/08/31 03:56:52;;;;;;;13.60;12.50;;;;;;;;;;4991768;28;20040;-72
2023/08/31 03:59:18;;;;;;;14.05;12.80;;;;;;;;;;4976921;28;20042;-72
2023/08/31 04:01:45;;;;;;;13.98;12.73;;;;;;;;;;5004676;28;20030;-72
2023/08/31 04:04:12;;;;;;;14.05;12.82;;;;;;;;;;5001917;28;20085;-73
2023/08/31 04:06:37;;;;;;;13.93;12.63;;;;;;;;;;4988272;28;20038;-73
2023/08/31 04:09:05;;;;;;;14.73;13.45;;;;;;;;;;5002328;28;20032;-73
2023/08/31 04:11:33;;;;;;;13.63;12.52;;;;;;;;;;5002463;28;20038;-73
2023/08/31 04:13:58;;;;;;;14.40;13.07;;;;;;;;;;4991756;28;20034;-73
2023/08/31 04:16:24;;;;;;;14.32;13.20;;;;;;;;;;4974693;28;20031;-73
2023/08/31 04:18:51;;;;;;;15.02;13.43;;;;;;;;;;4991780;28;20121;-73
2023/08/31 04:21:18;;;;;;;14.18;12.90;;;;;;;;;;5006461;28;20036;-74
2023/08/31 04:23:44;;;;;;;13.88;12.77;;;;;;;;;;4998245;28;20038;-74
2023/08/31 04:26:14;;;;;;;14.02;12.82;;;;;;;;;;4981741;28;20027;-74
2023/08/31 04:28:43;;;;;;;14.82;13.63;;;;;;;;;;4987108;28;20066;-74
2023/08/31 04:31:09;;;;;;;13.27;12.27;;;;;;;;;;4985636;28;20034;-74
2023/08/31 04:33:35;;;;;;;14.90;13.50;;;;;;;;;;4986122;28;20041;-74
2023/08/31 04:36:01;;;;;;;15.20;13.90;;;;;;;;;;4984386;28;20038;-73
2023/08/31 04:38:27;;;;;;;14.35;13.15;;;;;;;;;;4984658;28;20069;-74
2023/08/31 04:40:52;;;;;;;16.02;14.63;;;;;;;;;;4983868;28;20054;-74
2023/08/31 04:43:18;;;;;;;14.50;13.40;;;;;;;;;;4985425;28;20042;-73
2023/08/31 04:45:43;;;;;;;14.70;13.13;;;;;;;;;;4988534;28;20494;-73
2023/08/31 04:48:09;;;;;;;15.07;13.73;;;;;;;;;;4991135;28;20457;-73
2023/08/31 04:50:35;;;;;;;13.82;12.77;;;;;;;;;;4990372;28;20034;-74
2023/08/31 04:53:00;;;;;;;15.38;13.93;;;;;;;;;;4986659;28;20034;-74
2023/08/31 04:55:26;;;;;;;14.93;13.63;;;;;;;;;;4988064;28;20034;-74
2023/08/31 04:57:51;;;;;;;15.90;14.50;;;;;;;;;;4972438;28;20125;-74
2023/08/31 05:00:17;;;;;;;15.70;14.20;;;;;;;;;;4988924;28;20081;-74
2023/08/31 05:02:43;;;;;;;15.90;14.50;;;;;;;;;;4968214;28;20490;-73
2023/08/31 05:05:09;;;;;;;15.02;13.93;;;;;;;;;;4992610;28;20045;-74
2023/08/31 05:07:34;;;;;;;16.38;14.00;;;;;;;;;;4988610;28;20049;-74
2023/08/31 05:10:00;;;;;;;14.70;13.45;;;;;;;;;;4988281;28;20663;-74
2023/08/31 05:12:26;;;;;;;14.73;13.52;;;;;;;;;;4988110;28;20121;-74
2023/08/31 05:14:51;;;;;;;14.93;13.73;;;;;;;;;;4993200;28;20050;-74
2023/08/31 05:17:17;;;;;;;14.48;13.10;;;;;;;;;;4988354;28;20053;-74
2023/08/31 05:19:42;;;;;;;15.25;13.63;;;;;;;;;;4991072;28;20034;-72
2023/08/31 05:22:08;;;;;;;14.75;13.52;;;;;;;;;;4986514;28;20037;-72
2023/08/31 05:24:33;;;;;;;14.38;13.00;;;;;;;;;;4986673;28;20383;-72
2023/08/31 05:26:59;;;;;;;14.20;13.15;;;;;;;;;;4988519;28;20386;-72
2023/08/31 05:29:24;;;;;;;14.43;13.35;;;;;;;;;;4978539;28;20045;-71
2023/08/31 05:31:52;;;;;;;14.52;13.20;;;;;;;;;;4986079;28;20060;-72
2023/08/31 05:34:21;;;;;;;14.77;13.38;;;;;;;;;;4986322;28;20030;-72
2023/08/31 05:36:46;;;;;;;15.55;13.07;;;;;;;;;;5003821;28;20042;-72
2023/08/31 05:39:12;;;;;;;14.32;13.13;;;;;;;;;;4995181;28;20038;-71
2023/08/31 05:41:40;;;;;;;14.25;12.85;;;;;;;;;;4985583;28;20049;-72
2023/08/31 05:44:06;;;;;;;14.25;13.05;;;;;;;;;;4987818;28;20513;-72
2023/08/31 05:46:32;;;;;;;15.18;13.82;;;;;;;;;;4986557;28;20038;-71
2023/08/31 05:48:58;;;;;;;14.02;12.80;;;;;;;;;;4986559;28;20521;-71
2023/08/31 05:51:24;;;;;;;14.75;13.10;;;;;;;;;;4988050;28;20556;-73
2023/08/31 05:53:49;;;;;;;13.93;12.93;;;;;;;;;;5002440;28;20038;-73
2023/08/31 05:56:15;;;;;;;15.00;13.32;;;;;;;;;;4986572;28;20405;-73
2023/08/31 05:58:40;;;;;;;14.27;13.27;;;;;;;;;;4986169;28;20034;-73
2023/08/31 06:01:07;;;;;;;14.05;12.85;;;;;;;;;;4988295;28;20057;-73
2023/08/31 06:03:32;;;;;;;14.07;12.98;;;;;;;;;;4987864;28;20065;-73
2023/08/31 06:05:59;;;;;;;13.77;12.70;;;;;;;;;;4984231;28;20351;-73
2023/08/31 06:08:25;;;;;;;13.52;12.52;;;;;;;;;;5002827;28;20498;-74
2023/08/31 06:10:51;;;;;;;16.13;13.20;;;;;;;;;;4986542;28;20116;-73
2023/08/31 06:13:16;;;;;;;14.15;13.02;;;;;;;;;;4987610;28;20034;-73
2023/08/31 06:15:42;;;;;;;14.20;13.02;;;;;;;;;;4984080;28;20100;-73
2023/08/31 06:18:08;;;;;;;14.10;13.10;;;;;;;;;;4987731;28;20486;-73
2023/08/31 06:20:33;;;;;;;13.70;12.60;;;;;;;;;;4985908;28;20065;-73
2023/08/31 06:22:59;;;;;;;13.55;12.60;;;;;;;;;;4988951;28;20042;-73
2023/08/31 06:25:25;;;;;;;13.75;12.55;;;;;;;;;;4985801;28;20584;-74
2023/08/31 06:27:51;;;;;;;15.38;12.70;;;;;;;;;;5001715;28;20038;-73
2023/08/31 06:30:17;;;;;;;13.40;12.23;;;;;;;;;;4987126;28;20164;-74
2023/08/31 06:32:44;;;;;;;13.88;12.68;;;;;;;;;;4987593;28;20041;-73
2023/08/31 06:35:10;;;;;;;14.50;13.23;;;;;;;;;;5000524;28;20125;-73
2023/08/31 06:37:36;;;;;;;14.20;12.85;;;;;;;;;;4985018;28;20474;-74
2023/08/31 06:40:02;;;;;;;13.80;12.63;;;;;;;;;;4987334;28;20044;-71
2023/08/31 06:42:27;;;;;;;14.13;12.82;;;;;;;;;;4985694;28;20080;-71
2023/08/31 06:44:55;;;;;;;13.70;12.80;;;;;;;;;;4986688;28;20038;-71
2023/08/31 06:47:21;;;;;;;14.65;13.35;;;;;;;;;;4985283;28;20038;-70
2023/08/31 06:49:46;;;;;;;13.73;12.63;;;;;;;;;;4985831;28;20038;-71
2023/08/31 06:52:12;;;;;;;13.45;12.55;;;;;;;;;;4987012;28;20475;-71
2023/08/31 06:54:37;;;;;;;13.75;12.55;;;;;;;;;;4983991;28;20034;-71
2023/08/31 06:57:03;;;;;;;13.50;12.52;;;;;;;;;;4985150;28;20042;-73
2023/08/31 06:59:29;;;;;;;13.55;12.30;;;;;;;;;;4986777;28;20245;-73
2023/08/31 07:01:54;;;;;;;12.57;11.75;;;;;;;;;;4986874;28;20066;-73
2023/08/31 07:04:20;;;;;;;12.90;11.90;;;;;;;;;;4986365;28;20078;-74
2023/08/31 07:06:46;;;;;;;13.75;12.52;;;;;;;;;;4986067;28;20062;-73
2023/08/31 07:09:12;;;;;;;13.20;12.20;;;;;;;;;;4982693;28;20046;-71
2023/08/31 07:11:37;;;;;;;14.30;12.52;;;;;;;;;;4986450;28;20174;-70
2023/08/31 07:14:03;;;;;;;13.50;12.43;;;;;;;;;;4986024;28;20042;-71
2023/08/31 07:16:28;;;;;;;13.55;12.65;;;;;;;;;;4983788;28;20137;-71
2023/08/31 07:18:54;;;;;;;13.32;12.23;;;;;;;;;;4984480;28;20062;-71
2023/08/31 07:21:19;;;;;;;13.75;12.45;;;;;;;;;;4986541;28;20120;-71
2023/08/31 07:23:45;;;;;;;13.82;12.50;;;;;;;;;;4986282;28;20470;-71
2023/08/31 07:26:10;;;;;;;13.88;12.43;;;;;;;;;;4985865;28;20085;-71
2023/08/31 07:28:36;;;;;;;13.13;12.23;;;;;;;;;;4983152;28;20524;-71
2023/08/31 07:31:04;;;;;;;13.10;12.18;;;;;;;;;;4986170;28;20108;-71
2023/08/31 07:33:31;;;;;;;12.52;11.70;;;;;;;;;;4986036;28;20038;-71
2023/08/31 07:35:58;;;;;;;12.50;11.50;;;;;;;;;;4980589;28;20039;-70
2023/08/31 07:38:24;;;;;;;12.50;11.60;;;;;;;;;;4984128;28;20490;-70
2023/08/31 07:40:49;;;;;;;12.85;11.85;;;;;;;;;;4985738;28;20038;-71
2023/08/31 07:43:15;;;;;;;12.40;11.40;;;;;;;;;;4982834;28;20068;-71
2023/08/31 07:45:40;;;;;;;12.40;11.18;;;;;;;;;;4985327;28;20094;-71
2023/08/31 07:48:06;;;;;;;12.35;11.43;;;;;;;;;;4985384;28;20092;-70
2023/08/31 07:50:33;;;;;;;11.90;10.90;;;;;;;;;;4986259;28;20085;-71
2023/08/31 07:52:58;;;;;;;11.95;10.88;;;;;;;;;;4983840;28;20044;-71
2023/08/31 07:55:24;;;;;;;12.32;11.43;;;;;;;;;;4985362;28;20031;-71
2023/08/31 07:57:49;;;;;;;11.73;10.55;;;;;;;;;;4985564;28;20042;-71
2023/08/31 08:00:15;;;;;;;11.18;10.23;;;;;;;;;;4984495;28;20030;-73
2023/08/31 08:02:41;;;;;;;11.30;10.30;;;;;;;;;;4983585;28;20375;-71
2023/08/31 08:05:07;;;;;;;11.73;10.88;;;;;;;;;;4985466;28;20406;-71
2023/08/31 08:07:32;;;;;;;12.27;11.05;;;;;;;;;;4985548;28;20049;-71
2023/08/31 08:09:58;;;;;;;11.20;10.30;;;;;;;;;;4983058;28;20509;-71
2023/08/31 08:12:25;;;;;;;11.80;11.00;;;;;;;;;;4985550;28;20030;-72
2023/08/31 08:14:50;;;;;;;11.90;10.68;;;;;;;;;;4985477;28;20038;-72
2023/08/31 08:17:16;;;;;;;11.27;10.38;;;;;;;;;;4984642;28;20041;-72
2023/08/31 08:19:42;;;;;;;11.40;10.32;;;;;;;;;;4984277;28;20166;-72
2023/08/31 08:22:07;;;;;;;10.93;10.13;;;;;;;;;;4997358;28;20390;-71
2023/08/31 08:24:33;;;;;;;10.80;10.10;;;;;;;;;;4984931;28;20044;-72
2023/08/31 08:26:59;;;;;;;10.63;9.77;;;;;;;;;;4984899;28;20033;-71
2023/08/31 08:29:24;;;;;;;11.52;10.52;;;;;;;;;;4985634;28;20041;-72
2023/08/31 08:31:50;;;;;;;11.02;10.23;;;;;;;;;;4982626;28;20521;-72
2023/08/31 08:34:16;;;;;;;11.52;10.30;;;;;;;;;;4985000;28;20085;-72
2023/08/31 08:36:41;;;;;;;10.77;9.85;;;;;;;;;;4985618;28;20097;-71
2023/08/31 08:39:07;;;;;;;11.10;10.30;;;;;;;;;;4983982;28;20034;-71
2023/08/31 08:41:34;;;;;;;11.10;10.02;;;;;;;;;;4985579;28;20294;-72
2023/08/31 08:44:05;;;;;;;11.00;9.90;;;;;;;;;;4985097;28;20486;-72
2023/08/31 08:46:32;;;;;;;10.23;9.43;;;;;;;;;;4984023;28;20042;-71
2023/08/31 08:49:01;;;;;;;11.20;10.05;;;;;;;;;;4981237;28;20121;-71
2023/08/31 08:51:27;;;;;;;11.30;10.40;;;;;;;;;;4985577;28;20386;-71
2023/08/31 08:53:54;;;;;;;11.10;10.20;;;;;;;;;;4984561;28;20404;-71
2023/08/31 08:56:20;;;;;;;11.20;10.13;;;;;;;;;;4982676;28;20035;-71
2023/08/31 08:58:45;;;;;;;10.45;9.60;;;;;;;;;;4984520;28;20434;-71
2023/08/31 09:01:11;;;;;;;10.40;9.60;;;;;;;;;;4985733;28;20052;-71
2023/08/31 09:03:37;;;;;;;11.23;10.27;;;;;;;;;;4985556;28;20042;-71
2023/08/31 09:06:04;;;;;;;13.35;10.57;;;;;;;;;;4985254;28;20062;-71
2023/08/31 09:08:30;;;;;;;11.00;10.00;;;;;;;;;;4965561;28;20046;-71
2023/08/31 09:11:01;;;;;;;12.00;11.10;;;;;;;;;;4984275;28;20045;-71
2023/08/31 09:13:29;;;;;;;11.65;10.68;;;;;;;;;;4985224;28;20034;-71
2023/08/31 09:15:56;;;;;;;11.90;10.98;;;;;;;;;;4987370;28;20030;-71
2023/08/31 09:18:26;;;;;;;11.70;10.80;;;;;;;;;;4981961;28;20381;-71
2023/08/31 09:20:53;;;;;;;12.10;11.10;;;;;;;;;;4984557;28;20093;-71
2023/08/31 09:23:19;;;;;;;11.65;10.68;;;;;;;;;;4984179;28;20030;-71
2023/08/31 09:25:53;;;;;;;12.43;11.07;;;;;;;;;;4980890;28;20548;-71
2023/08/31 09:28:21;;;;;;;12.52;11.10;;;;;;;;;;4978171;28;20038;-71
2023/08/31 09:30:47;;;;;;;12.20;11.00;;;;;;;;;;4987880;28;20025;-71
2023/08/31 09:33:18;;;;;;;12.90;11.75;;;;;;;;;;4986958;28;21109;-71
2023/08/31 09:35:56;;;;;;;12.80;11.68;;;;;;;;;;4986148;28;20027;-71
2023/08/31 09:38:22;;;;;;;12.27;11.27;;;;;;;;;;4985511;28;20505;-71
2023/08/31 09:40:48;;;;;;;12.18;11.18;;;;;;;;;;4987852;28;20038;-71
2023/08/31 09:43:33;;;;;;;11.20;9.95;;;;;;;;;;4987829;28;20106;-71
2023/08/31 09:46:00;;;;;;;11.60;10.70;;;;;;;;;;4984483;28;20048;-71
2023/08/31 09:48:26;;;;;;;11.57;10.48;;;;;;;;;;4988010;28;20418;-71
2023/08/31 09:50:52;;;;;;;11.00;10.10;;;;;;;;;;4985809;28;20034;-71
2023/08/31 09:53:20;;;;;;;11.15;10.15;;;;;;;;;;4986030;28;20464;-71
2023/08/31 09:55:47;;;;;;;11.73;10.35;;;;;;;;;;4986344;28;20073;-71
2023/08/31 09:58:17;;;;;;;11.38;10.35;;;;;;;;;;4986004;28;20084;-71
2023/08/31 10:00:43;;;;;;;12.70;11.43;;;;;;;;;;4985664;28;20166;-71
2023/08/31 10:03:14;;;;;;;11.10;10.32;;;;;;;;;;4987379;28;20040;-71
2023/08/31 10:05:40;;;;;;;10.00;9.20;;;;;;;;;;4987517;28;20117;-71
2023/08/31 10:08:07;;;;;;;11.00;10.10;;;;;;;;;;4984039;28;20141;-71
2023/08/31 10:10:33;;;;;;;10.45;9.65;;;;;;;;;;5002050;28;20042;-71
2023/08/31 10:12:59;;;;;;;11.18;10.30;;;;;;;;;;4996904;28;20036;-72
2023/08/31 10:15:30;;;;;;;11.52;9.95;;;;;;;;;;4984753;28;20026;-71
2023/08/31 10:17:56;;;;;;;11.35;10.45;;;;;;;;;;4985757;28;20452;-72
2023/08/31 10:20:22;;;;;;;10.68;9.77;;;;;;;;;;4987845;28;20715;-72
2023/08/31 10:22:48;;;;;;;10.32;9.43;;;;;;;;;;4986642;28;20125;-72
2023/08/31 10:25:14;;;;;;;11.20;10.13;;;;;;;;;;4985172;28;20053;-72
2023/08/31 10:27:50;;;;;;;9.85;9.05;;;;;;;;;;4987235;28;20061;-71
2023/08/31 10:30:22;;;;;;;10.07;9.35;;;;;;;;;;4985803;28;20042;-71
2023/08/31 10:33:09;;;;;;;11.45;9.55;;;;;;;;;;4985283;28;20553;-71
2023/08/31 10:35:47;;;;;;;10.88;9.48;;;;;;;;;;4985025;28;20573;-71
2023/08/31 10:38:17;;;;;;;11.10;10.20;;;;;;;;;;4984691;28;20045;-72
2023/08/31 10:41:03;;;;;;;10.95;9.90;;;;;;;;;;4981050;28;20042;-72
2023/08/31 10:43:57;;;;;;;9.95;9.05;;;;;;;;;;4985347;28;20077;-71
2023/08/31 10:46:39;;;;;;;10.52;9.52;;;;;;;;;;4986511;28;20549;-71
2023/08/31 10:49:11;;;;;;;11.55;10.38;;;;;;;;;;4984757;28;20371;-71
2023/08/31 10:51:38;;;;;;;10.25;9.55;;;;;;;;;;4985643;28;20088;-71
2023/08/31 10:54:10;;;;;;;10.65;9.73;;;;;;;;;;4986410;28;20046;-71
2023/08/31 10:56:54;;;;;;;10.93;9.93;;;;;;;;;;4983962;28;20034;-71
2023/08/31 10:59:21;;;;;;;9.93;9.13;;;;;;;;;;4985209;28;20386;-72
2023/08/31 11:01:55;;;;;;;10.98;9.63;;;;;;;;;;5001732;28;20454;-72
2023/08/31 11:04:22;;;;;;;13.05;10.70;;;;;;;;;;4982033;28;20038;-72
2023/08/31 11:06:47;;;;;;;10.20;8.77;;;;;;;;;;4984301;28;20031;-72
2023/08/31 11:09:20;;;;;;;9.77;8.77;;;;;;;;;;4986694;28;20042;-72
2023/08/31 11:11:47;;;;;;;10.23;9.35;;;;;;;;;;4985150;28;20034;-72
2023/08/31 11:14:13;;;;;;;11.00;9.98;;;;;;;;;;4982123;28;20034;-71
2023/08/31 11:16:39;;;;;;;14.18;9.60;;;;;;;;;;4986312;28;20107;-71
2023/08/31 11:19:04;;;;;;;10.20;9.38;;;;;;;;;;4986475;28;20038;-72
2023/08/31 11:21:31;;;;;;;10.10;9.20;;;;;;;;;;4986618;28;20030;-72
2023/08/31 11:23:58;;;;;;;10.57;9.70;;;;;;;;;;4982802;28;20030;-72
2023/08/31 11:26:29;;;;;;;10.73;9.90;;;;;;;;;;4984354;28;20026;-72
2023/08/31 11:28:58;;;;;;;10.80;9.90;;;;;;;;;;4986061;28;20554;-72
2023/08/31 11:31:24;;;;;;;11.63;10.50;;;;;;;;;;4983302;28;20045;-72
2023/08/31 11:33:49;;;;;;;10.27;9.35;;;;;;;;;;4984030;28;20565;-72
2023/08/31 11:36:17;;;;;;;10.77;9.93;;;;;;;;;;4983983;28;20606;-72
2023/08/31 11:38:43;;;;;;;10.02;9.23;;;;;;;;;;4985795;28;20128;-72
2023/08/31 11:41:09;;;;;;;10.10;9.30;;;;;;;;;;4985866;28;20038;-72
2023/08/31 11:43:36;;;;;;;10.20;9.30;;;;;;;;;;4985325;28;20100;-72
2023/08/31 11:46:03;;;;;;;10.15;9.38;;;;;;;;;;4985121;28;20026;-72
2023/08/31 11:48:28;;;;;;;10.48;9.57;;;;;;;;;;4986106;28;20056;-72
2023/08/31 11:50:54;;;;;;;11.02;10.02;;;;;;;;;;4986161;28;20422;-72
2023/08/31 11:53:20;;;;;;;11.27;10.15;;;;;;;;;;4982307;28;20435;-72
2023/08/31 11:55:53;;;;;;;11.32;10.32;;;;;;;;;;4986106;28;20488;-72
2023/08/31 11:58:19;;;;;;;11.27;10.25;;;;;;;;;;4983767;28;20070;-72
2023/08/31 12:00:54;;;;;;;11.88;10.35;;;;;;;;;;4983845;28;20093;-72
2023/08/31 12:03:19;;;;;;;11.55;10.40;;;;;;;;;;4983877;28;20038;-72
2023/08/31 12:05:46;;;;;;;11.07;10.18;;;;;;;;;;4985872;28;20305;-72
2023/08/31 12:08:13;;;;;;;11.00;10.00;;;;;;;;;;4986089;28;20049;-72
2023/08/31 12:10:42;;;;;;;11.02;10.13;;;;;;;;;;4983731;28;20397;-72
2023/08/31 12:13:11;;;;;;;10.20;9.38;;;;;;;;;;4985758;28;20629;-72
2023/08/31 12:15:36;;;;;;;;;;;;;;;;;;4986191;28;20117;-72
2023/08/31 12:18:13;;;;;;;10.38;9.48;;;;;;;;;;4985069;28;20024;-72
2023/08/31 12:20:51;;;;;;;10.23;9.32;;;;;;;;;;4985610;28;20026;-72
2023/08/31 12:23:17;;;;;;;12.15;9.80;;;;;;;;;;4986451;28;20089;-72
2023/08/31 12:25:50;;;;;;;11.02;9.93;;;;;;;;;;4984483;28;20503;-74
2023/08/31 12:28:20;;;;;;;10.40;9.60;;;;;;;;;;4982644;28;20034;-72
2023/08/31 12:30:50;;;;;;;10.27;9.48;;;;;;;;;;4984630;28;20124;-72
2023/08/31 12:33:16;;;;;;;11.20;10.20;;;;;;;;;;4984793;28;20042;-71
2023/08/31 12:35:43;;;;;;;12.60;10.05;;;;;;;;;;4985729;28;20058;-71
2023/08/31 12:38:08;;;;;;;11.15;10.00;;;;;;;;;;4981972;28;20245;-71
2023/08/31 12:40:34;;;;;;;10.95;9.88;;;;;;;;;;4985785;28;20089;-71
2023/08/31 12:42:59;;;;;;;9.98;9.20;;;;;;;;;;4985886;28;20034;-71
2023/08/31 12:45:25;;;;;;;10.52;9.52;;;;;;;;;;4984962;28;20057;-71
2023/08/31 12:47:51;;;;;;;10.73;9.73;;;;;;;;;;4985797;28;20041;-71
2023/08/31 12:50:17;;;;;;;10.60;9.80;;;;;;;;;;4985262;28;20121;-71
2023/08/31 12:52:46;;;;;;;10.90;9.85;;;;;;;;;;4985244;28;20065;-71
2023/08/31 12:55:15;;;;;;;11.35;10.25;;;;;;;;;;4982935;28;20030;-71
2023/08/31 12:57:44;;;;;;;;;;;;;;;;;;4985748;28;20041;-71
2023/08/31 13:00:12;;;;;;;11.25;10.40;;;;;;;;;;4985268;28;19913;-71
2023/08/31 13:02:42;;;;;;;11.13;10.13;;;;;;;;;;4984056;28;20140;-71
2023/08/31 13:05:08;;;;;;;10.95;10.05;;;;;;;;;;4985134;28;20046;-71
2023/08/31 13:07:36;;;;;;;11.27;10.38;;;;;;;;;;4987848;28;20137;-71
2023/08/31 13:10:03;;;;;;;10.25;9.55;;;;;;;;;;4988897;28;20041;-71
2023/08/31 13:12:33;;;;;;;10.60;9.80;;;;;;;;;;4989051;28;20486;-71
2023/08/31 13:14:59;;;;;;;11.00;10.10;;;;;;;;;;4985907;28;20125;-71
2023/08/31 13:17:28;;;;;;;10.80;9.88;;;;;;;;;;4988737;28;20520;-71
2023/08/31 13:19:55;;;;;;;10.50;9.63;;;;;;;;;;4988988;28;20516;-71
2023/08/31 13:22:21;;;;;;;10.65;9.40;;;;;;;;;;4988482;28;20118;-71
2023/08/31 13:24:47;;;;;;;11.00;9.90;;;;;;;;;;4986954;28;20109;-71
2023/08/31 13:27:15;;;;;;;10.63;9.65;;;;;;;;;;4986993;28;21049;-71
2023/08/31 13:29:42;;;;;;;11.20;10.18;;;;;;;;;;4988809;28;20034;-71
2023/08/31 13:32:07;;;;;;;11.02;10.10;;;;;;;;;;4986583;28;20469;-71
2023/08/31 13:34:34;;;;;;;10.90;9.90;;;;;;;;;;4987769;28;20038;-71
2023/08/31 13:37:00;;;;;;;10.80;10.00;;;;;;;;;;4988088;28;20034;-72
2023/08/31 13:39:26;;;;;;;11.05;9.95;;;;;;;;;;4987034;28;20061;-71
2023/08/31 13:41:52;;;;;;;11.48;9.90;;;;;;;;;;4986525;28;20413;-71
2023/08/31 13:44:21;;;;;;;10.50;9.70;;;;;;;;;;4987913;28;20112;-71
2023/08/31 13:46:47;;;;;;;10.77;9.85;;;;;;;;;;4987566;28;20342;-71
2023/08/31 13:49:13;;;;;;;11.18;10.00;;;;;;;;;;4985711;28;20515;-71
2023/08/31 13:51:39;;;;;;;11.40;10.50;;;;;;;;;;5003183;28;20038;-71
2023/08/31 13:54:05;;;;;;;11.85;10.95;;;;;;;;;;4987521;28;20455;-72
2023/08/31 13:56:31;;;;;;;11.23;10.20;;;;;;;;;;4988038;28;20037;-72
2023/08/31 13:58:56;;;;;;;11.10;10.30;;;;;;;;;;4986734;28;20026;-72
2023/08/31 14:01:22;;;;;;;11.18;10.27;;;;;;;;;;4987704;28;20037;-72
2023/08/31 14:03:47;;;;;;;11.40;10.50;;;;;;;;;;4987751;28;20417;-72
2023/08/31 14:06:14;;;;;;;10.88;10.07;;;;;;;;;;4987756;28;20913;-72
2023/08/31 14:08:40;;;;;;;11.02;10.02;;;;;;;;;;4985665;28;20113;-72
2023/08/31 14:11:06;;;;;;;10.75;9.82;;;;;;;;;;4987817;28;20149;-72
2023/08/31 14:13:31;;;;;;;10.55;9.75;;;;;;;;;;4988132;28;20034;-72
2023/08/31 14:15:58;;;;;;;10.80;9.90;;;;;;;;;;4983953;28;20038;-72
2023/08/31 14:18:25;;;;;;;10.73;9.90;;;;;;;;;;4986693;28;20112;-72
2023/08/31 14:20:51;;;;;;;10.60;9.68;;;;;;;;;;4984943;28;20117;-73
2023/08/31 14:23:16;;;;;;;10.88;9.85;;;;;;;;;;4987905;28;20141;-72